sensor_id;sensor_type;location;lat;lon;timestamp;pressure;altitude;pressure_sealevel;temperature;humidity
69982;BME280;57319;56.274;43.980;2022-09-28T00:01:13;99211.59;;;7.34;93.87
69982;BME280;57319;56.274;43.980;2022-09-28T00:03:39;99205.63;;;7.33;93.70
69982;BME280;57319;56.274;43.980;2022-09-28T00:06:08;99197.09;;;7.34;93.84
69982;BME280;57319;56.274;43.980;2022-09-28T00:08:35;99197.03;;;7.37;93.85
69982;BME280;57319;56.274;43.980;2022-09-28T00:11:01;99189.34;;;7.39;93.67
69982;BME280;57319;56.274;43.980;2022-09-28T00:13:28;99193.66;;;7.37;93.96
69982;BME280;57319;56.274;43.980;2022-09-28T00:16:07;99189.34;;;7.39;94.04
69982;BME280;57319;56.274;43.980;2022-09-28T00:18:34;99182.53;;;7.41;93.88
69982;BME280;57319;56.274;43.980;2022-09-28T00:21:08;99181.66;;;7.42;93.87
69982;BME280;57319;56.274;43.980;2022-09-28T00:23:36;99179.09;;;7.42;93.80
69982;BME280;57319;56.274;43.980;2022-09-28T00:26:21;99170.50;;;7.44;93.95
69982;BME280;57319;56.274;43.980;2022-09-28T00:28:50;99175.66;;;7.46;94.03
69982;BME280;57319;56.274;43.980;2022-09-28T00:31:16;99167.09;;;7.47;93.72
69982;BME280;57319;56.274;43.980;2022-09-28T00:33:43;99165.34;;;7.51;93.76
69982;BME280;57319;56.274;43.980;2022-09-28T00:36:09;99151.75;;;7.45;93.93
69982;BME280;57319;56.274;43.980;2022-09-28T00:38:34;99156.00;;;7.46;93.93
69982;BME280;57319;56.274;43.980;2022-09-28T00:41:00;99146.56;;;7.48;93.90
69982;BME280;57319;56.274;43.980;2022-09-28T00:43:26;99137.22;;;7.47;93.84
69982;BME280;57319;56.274;43.980;2022-09-28T00:46:14;99125.28;;;7.46;93.93
69982;BME280;57319;56.274;43.980;2022-09-28T00:48:51;99131.22;;;7.50;93.80
69982;BME280;57319;56.274;43.980;2022-09-28T00:51:19;99131.22;;;7.52;93.73
69982;BME280;57319;56.274;43.980;2022-09-28T00:53:47;99129.50;;;7.51;94.01
69982;BME280;57319;56.274;43.980;2022-09-28T00:56:16;99124.34;;;7.54;93.72
69982;BME280;57319;56.274;43.980;2022-09-28T00:58:46;99130.34;;;7.54;93.70
69982;BME280;57319;56.274;43.980;2022-09-28T01:01:12;99128.53;;;7.59;93.87
69982;BME280;57319;56.274;43.980;2022-09-28T01:03:38;99119.97;;;7.63;93.90
69982;BME280;57319;56.274;43.980;2022-09-28T01:06:16;99118.28;;;7.62;93.70
69982;BME280;57319;56.274;43.980;2022-09-28T01:08:42;99117.44;;;7.60;93.33
69982;BME280;57319;56.274;43.980;2022-09-28T01:11:10;99113.19;;;7.59;93.55
69982;BME280;57319;56.274;43.980;2022-09-28T01:13:36;99100.38;;;7.59;93.44
69982;BME280;57319;56.274;43.980;2022-09-28T01:16:23;99101.22;;;7.61;93.63
69982;BME280;57319;56.274;43.980;2022-09-28T01:24:45;99100.38;;;7.59;93.47
69982;BME280;57319;56.274;43.980;2022-09-28T01:30:05;99085.00;;;7.62;93.96
69982;BME280;57319;56.274;43.980;2022-09-28T01:35:07;99086.66;;;7.63;93.79
69982;BME280;57319;56.274;43.980;2022-09-28T01:38:01;99087.56;;;7.62;93.59
69982;BME280;57319;56.274;43.980;2022-09-28T01:40:26;99078.94;;;7.70;93.40
69982;BME280;57319;56.274;43.980;2022-09-28T01:42:56;99081.50;;;7.70;93.36
69982;BME280;57319;56.274;43.980;2022-09-28T01:45:29;99066.97;;;7.69;93.57
69982;BME280;57319;56.274;43.980;2022-09-28T01:48:01;99067.81;;;7.69;93.10
69982;BME280;57319;56.274;43.980;2022-09-28T01:50:30;99069.56;;;7.67;93.56
69982;BME280;57319;56.274;43.980;2022-09-28T01:55:41;99054.19;;;7.67;93.46
69982;BME280;57319;56.274;43.980;2022-09-28T01:58:17;99055.91;;;7.67;93.49
69982;BME280;57319;56.274;43.980;2022-09-28T02:00:46;99049.94;;;7.66;93.48
69982;BME280;57319;56.274;43.980;2022-09-28T02:03:20;99045.63;;;7.70;93.62
69982;BME280;57319;56.274;43.980;2022-09-28T02:06:05;99048.16;;;7.71;93.58
69982;BME280;57319;56.274;43.980;2022-09-28T02:08:39;99035.38;;;7.70;93.50
69982;BME280;57319;56.274;43.980;2022-09-28T02:11:13;99039.63;;;7.72;93.44
69982;BME280;57319;56.274;43.980;2022-09-28T02:13:55;99039.59;;;7.74;93.62
69982;BME280;57319;56.274;43.980;2022-09-28T02:16:43;99034.44;;;7.75;93.13
69982;BME280;57319;56.274;43.980;2022-09-28T02:19:18;99020.81;;;7.73;93.10
69982;BME280;57319;56.274;43.980;2022-09-28T02:22:22;99014.84;;;7.73;93.19
69982;BME280;57319;56.274;43.980;2022-09-28T02:24:53;99012.25;;;7.74;93.23
69982;BME280;57319;56.274;43.980;2022-09-28T02:30:20;99014.81;;;7.74;93.28
69982;BME280;57319;56.274;43.980;2022-09-28T02:32:49;99006.28;;;7.75;93.49
69982;BME280;57319;56.274;43.980;2022-09-28T02:35:17;99004.56;;;7.74;93.24
69982;BME280;57319;56.274;43.980;2022-09-28T02:37:43;99000.31;;;7.75;93.15
69982;BME280;57319;56.274;43.980;2022-09-28T02:40:16;99002.88;;;7.75;93.44
69982;BME280;57319;56.274;43.980;2022-09-28T02:48:27;99004.53;;;7.76;93.34
69982;BME280;57319;56.274;43.980;2022-09-28T02:54:17;99001.22;;;7.71;93.22
69982;BME280;57319;56.274;43.980;2022-09-28T02:59:47;98993.53;;;7.71;93.71
69982;BME280;57319;56.274;43.980;2022-09-28T03:05:18;98988.41;;;7.72;93.23
69982;BME280;57319;56.274;43.980;2022-09-28T03:10:29;98983.28;;;7.72;93.33
69982;BME280;57319;56.274;43.980;2022-09-28T03:12:58;98984.97;;;7.72;93.16
69982;BME280;57319;56.274;43.980;2022-09-28T03:15:33;98988.38;;;7.74;93.45
69982;BME280;57319;56.274;43.980;2022-09-28T03:17:59;98988.41;;;7.72;93.21
69982;BME280;57319;56.274;43.980;2022-09-28T03:20:27;98984.09;;;7.73;93.48
69982;BME280;57319;56.274;43.980;2022-09-28T03:22:54;98973.84;;;7.73;93.28
69982;BME280;57319;56.274;43.980;2022-09-28T03:25:19;98975.56;;;7.74;93.22
69982;BME280;57319;56.274;43.980;2022-09-28T03:27:45;98976.38;;;7.76;93.53
69982;BME280;57319;56.274;43.980;2022-09-28T03:30:12;98974.69;;;7.76;93.04
69982;BME280;57319;56.274;43.980;2022-09-28T03:32:38;98976.44;;;7.71;93.08
69982;BME280;57319;56.274;43.980;2022-09-28T03:35:05;98969.63;;;7.70;93.49
69982;BME280;57319;56.274;43.980;2022-09-28T03:37:31;98982.38;;;7.73;93.12
69982;BME280;57319;56.274;43.980;2022-09-28T03:39:56;98985.81;;;7.72;93.37
69982;BME280;57319;56.274;43.980;2022-09-28T03:42:22;98984.97;;;7.72;93.21
69982;BME280;57319;56.274;43.980;2022-09-28T03:44:48;98979.88;;;7.70;93.24
69982;BME280;57319;56.274;43.980;2022-09-28T03:47:14;98987.50;;;7.75;93.21
69982;BME280;57319;56.274;43.980;2022-09-28T03:49:41;98972.97;;;7.75;93.10
69982;BME280;57319;56.274;43.980;2022-09-28T03:52:07;98974.69;;;7.73;93.23
69982;BME280;57319;56.274;43.980;2022-09-28T03:54:33;98975.53;;;7.75;93.19
69982;BME280;57319;56.274;43.980;2022-09-28T03:56:58;98973.00;;;7.74;93.11
69982;BME280;57319;56.274;43.980;2022-09-28T03:59:24;98971.28;;;7.74;93.29
69982;BME280;57319;56.274;43.980;2022-09-28T04:01:50;98975.63;;;7.68;93.09
69982;BME280;57319;56.274;43.980;2022-09-28T04:04:17;98975.59;;;7.69;93.29
69982;BME280;57319;56.274;43.980;2022-09-28T04:06:42;98977.31;;;7.70;93.18
69982;BME280;57319;56.274;43.980;2022-09-28T04:09:08;98968.81;;;7.68;93.07
69982;BME280;57319;56.274;43.980;2022-09-28T04:11:34;98968.78;;;7.70;93.17
69982;BME280;57319;56.274;43.980;2022-09-28T04:14:00;98956.03;;;7.67;93.28
69982;BME280;57319;56.274;43.980;2022-09-28T04:16:26;98951.75;;;7.66;93.57
69982;BME280;57319;56.274;43.980;2022-09-28T04:18:51;98955.16;;;7.66;93.34
69982;BME280;57319;56.274;43.980;2022-09-28T04:21:18;98950.00;;;7.69;93.26
69982;BME280;57319;56.274;43.980;2022-09-28T04:23:44;98945.72;;;7.70;93.22
69982;BME280;57319;56.274;43.980;2022-09-28T04:26:19;98941.47;;;7.69;93.25
69982;BME280;57319;56.274;43.980;2022-09-28T04:28:45;98948.28;;;7.70;93.18
69982;BME280;57319;56.274;43.980;2022-09-28T04:31:37;98947.47;;;7.66;93.25
69982;BME280;57319;56.274;43.980;2022-09-28T04:34:03;98941.47;;;7.69;93.45
69982;BME280;57319;56.274;43.980;2022-09-28T04:36:29;98944.88;;;7.68;93.55
69982;BME280;57319;56.274;43.980;2022-09-28T04:38:54;98940.59;;;7.70;93.34
69982;BME280;57319;56.274;43.980;2022-09-28T04:41:20;98930.41;;;7.67;93.69
69982;BME280;57319;56.274;43.980;2022-09-28T04:43:49;98931.28;;;7.66;93.97
69982;BME280;57319;56.274;43.980;2022-09-28T04:46:15;98918.53;;;7.62;93.66
69982;BME280;57319;56.274;43.980;2022-09-28T04:48:41;98915.06;;;7.63;93.66
69982;BME280;57319;56.274;43.980;2022-09-28T04:51:07;98919.34;;;7.63;93.74
69982;BME280;57319;56.274;43.980;2022-09-28T04:53:32;98920.25;;;7.60;93.77
69982;BME280;57319;56.274;43.980;2022-09-28T04:56:08;98921.06;;;7.64;93.75
69982;BME280;57319;56.274;43.980;2022-09-28T04:58:34;98915.03;;;7.65;93.45
69982;BME280;57319;56.274;43.980;2022-09-28T05:01:03;98909.97;;;7.62;93.27
69982;BME280;57319;56.274;43.980;2022-09-28T05:03:30;98899.66;;;7.65;93.34
69982;BME280;57319;56.274;43.980;2022-09-28T05:05:55;98903.16;;;7.62;93.33
69982;BME280;57319;56.274;43.980;2022-09-28T05:08:21;98899.72;;;7.62;93.53
69982;BME280;57319;56.274;43.980;2022-09-28T05:10:47;98899.69;;;7.63;93.45
69982;BME280;57319;56.274;43.980;2022-09-28T05:13:13;98893.75;;;7.63;93.48
69982;BME280;57319;56.274;43.980;2022-09-28T05:15:40;98891.13;;;7.66;93.43
69982;BME280;57319;56.274;43.980;2022-09-28T05:18:06;98890.25;;;7.67;93.47
69982;BME280;57319;56.274;43.980;2022-09-28T05:20:33;98893.75;;;7.63;93.30
69982;BME280;57319;56.274;43.980;2022-09-28T05:22:59;98886.06;;;7.63;93.40
69982;BME280;57319;56.274;43.980;2022-09-28T05:25:24;98886.97;;;7.59;93.29
69982;BME280;57319;56.274;43.980;2022-09-28T05:27:54;98883.56;;;7.58;93.16
69982;BME280;57319;56.274;43.980;2022-09-28T05:30:20;98869.97;;;7.55;93.43
69982;BME280;57319;56.274;43.980;2022-09-28T05:32:47;98872.47;;;7.58;93.42
69982;BME280;57319;56.274;43.980;2022-09-28T05:35:15;98874.16;;;7.59;93.40
69982;BME280;57319;56.274;43.980;2022-09-28T05:37:42;98862.22;;;7.58;93.48
69982;BME280;57319;56.274;43.980;2022-09-28T05:40:08;98866.50;;;7.57;93.17
69982;BME280;57319;56.274;43.980;2022-09-28T05:42:34;98858.00;;;7.55;93.05
69982;BME280;57319;56.274;43.980;2022-09-28T05:45:00;98861.41;;;7.56;93.12
69982;BME280;57319;56.274;43.980;2022-09-28T05:47:29;98853.75;;;7.53;93.20
69982;BME280;57319;56.274;43.980;2022-09-28T05:49:55;98854.63;;;7.53;93.25
69982;BME280;57319;56.274;43.980;2022-09-28T05:52:21;98856.34;;;7.51;93.36
69982;BME280;57319;56.274;43.980;2022-09-28T05:54:47;98848.63;;;7.54;93.49
69982;BME280;57319;56.274;43.980;2022-09-28T05:57:13;98844.44;;;7.50;93.51
69982;BME280;57319;56.274;43.980;2022-09-28T05:59:39;98841.88;;;7.47;93.36
69982;BME280;57319;56.274;43.980;2022-09-28T06:02:05;98841.88;;;7.48;93.36
69982;BME280;57319;56.274;43.980;2022-09-28T06:04:31;98835.09;;;7.46;93.65
69982;BME280;57319;56.274;43.980;2022-09-28T06:06:58;98827.41;;;7.47;93.55
69982;BME280;57319;56.274;43.980;2022-09-28T06:09:24;98822.25;;;7.49;93.42
69982;BME280;57319;56.274;43.980;2022-09-28T06:11:52;98812.00;;;7.49;93.48
69982;BME280;57319;56.274;43.980;2022-09-28T06:14:22;98814.59;;;7.47;93.07
69982;BME280;57319;56.274;43.980;2022-09-28T06:16:47;98816.25;;;7.48;93.34
69982;BME280;57319;56.274;43.980;2022-09-28T06:19:14;98809.44;;;7.49;93.17
69982;BME280;57319;56.274;43.980;2022-09-28T06:21:39;98816.25;;;7.48;93.18
69982;BME280;57319;56.274;43.980;2022-09-28T06:24:05;98811.13;;;7.50;93.16
69982;BME280;57319;56.274;43.980;2022-09-28T06:26:31;98802.59;;;7.50;93.14
69982;BME280;57319;56.274;43.980;2022-09-28T06:28:57;98809.47;;;7.47;93.51
69982;BME280;57319;56.274;43.980;2022-09-28T06:31:25;98800.94;;;7.45;93.38
69982;BME280;57319;56.274;43.980;2022-09-28T06:33:51;98803.50;;;7.45;93.07
69982;BME280;57319;56.274;43.980;2022-09-28T06:36:18;98798.41;;;7.44;93.26
69982;BME280;57319;56.274;43.980;2022-09-28T06:38:44;98812.09;;;7.43;93.21
69982;BME280;57319;56.274;43.980;2022-09-28T06:41:10;98807.84;;;7.42;93.30
69982;BME280;57319;56.274;43.980;2022-09-28T06:43:36;98803.53;;;7.44;93.25
69982;BME280;57319;56.274;43.980;2022-09-28T06:46:05;98798.44;;;7.42;93.28
69982;BME280;57319;56.274;43.980;2022-09-28T06:48:32;98805.25;;;7.43;93.18
69982;BME280;57319;56.274;43.980;2022-09-28T06:50:59;98802.66;;;7.46;93.10
69982;BME280;57319;56.274;43.980;2022-09-28T06:53:25;98812.84;;;7.50;93.11
69982;BME280;57319;56.274;43.980;2022-09-28T06:55:53;98809.47;;;7.47;92.98
69982;BME280;57319;56.274;43.980;2022-09-28T06:58:19;98805.25;;;7.45;92.87
69982;BME280;57319;56.274;43.980;2022-09-28T07:00:47;98802.69;;;7.43;93.09
69982;BME280;57319;56.274;43.980;2022-09-28T07:03:16;98801.84;;;7.43;92.90
69982;BME280;57319;56.274;43.980;2022-09-28T07:05:50;98798.50;;;7.39;92.56
69982;BME280;57319;56.274;43.980;2022-09-28T07:08:17;98799.44;;;7.32;93.13
69982;BME280;57319;56.274;43.980;2022-09-28T07:10:45;98801.91;;;7.40;93.30
69982;BME280;57319;56.274;43.980;2022-09-28T07:13:12;98794.25;;;7.38;93.11
69982;BME280;57319;56.274;43.980;2022-09-28T07:15:39;98794.31;;;7.34;93.23
69982;BME280;57319;56.274;43.980;2022-09-28T07:18:06;98790.88;;;7.35;93.25
69982;BME280;57319;56.274;43.980;2022-09-28T07:20:33;98783.22;;;7.33;93.01
69982;BME280;57319;56.274;43.980;2022-09-28T07:23:04;98785.72;;;7.36;93.01
69982;BME280;57319;56.274;43.980;2022-09-28T07:25:31;98784.84;;;7.37;93.17
69982;BME280;57319;56.274;43.980;2022-09-28T07:27:58;98784.84;;;7.37;92.99
69982;BME280;57319;56.274;43.980;2022-09-28T07:30:30;98782.31;;;7.36;93.04
69982;BME280;57319;56.274;43.980;2022-09-28T07:33:02;98782.28;;;7.39;92.85
69982;BME280;57319;56.274;43.980;2022-09-28T07:35:29;98782.28;;;7.39;92.68
69982;BME280;57319;56.274;43.980;2022-09-28T07:37:59;98782.25;;;7.40;92.76
69982;BME280;57319;56.274;43.980;2022-09-28T07:40:26;98778.00;;;7.41;92.67
69982;BME280;57319;56.274;43.980;2022-09-28T07:43:11;98779.72;;;7.39;92.30
69982;BME280;57319;56.274;43.980;2022-09-28T07:45:38;98782.25;;;7.40;92.37
69982;BME280;57319;56.274;43.980;2022-09-28T07:48:04;98768.72;;;7.34;92.60
69982;BME280;57319;56.274;43.980;2022-09-28T07:50:30;98781.41;;;7.40;92.53
69982;BME280;57319;56.274;43.980;2022-09-28T07:52:57;98771.13;;;7.43;92.51
69982;BME280;57319;56.274;43.980;2022-09-28T07:55:23;98778.84;;;7.40;92.29
69982;BME280;57319;56.274;43.980;2022-09-28T07:57:55;98771.22;;;7.37;92.12
69982;BME280;57319;56.274;43.980;2022-09-28T08:00:26;98773.84;;;7.34;92.10
69982;BME280;57319;56.274;43.980;2022-09-28T08:02:52;98772.97;;;7.33;92.33
69982;BME280;57319;56.274;43.980;2022-09-28T08:05:18;98769.59;;;7.31;92.68
69982;BME280;57319;56.274;43.980;2022-09-28T08:07:43;98771.34;;;7.27;92.61
69982;BME280;57319;56.274;43.980;2022-09-28T08:10:09;98773.09;;;7.25;92.76
69982;BME280;57319;56.274;43.980;2022-09-28T08:12:36;98773.94;;;7.26;92.63
69982;BME280;57319;56.274;43.980;2022-09-28T08:15:06;98770.56;;;7.25;92.59
69982;BME280;57319;56.274;43.980;2022-09-28T08:17:35;98765.44;;;7.24;92.37
69982;BME280;57319;56.274;43.980;2022-09-28T08:20:01;98763.75;;;7.23;92.64
69982;BME280;57319;56.274;43.980;2022-09-28T08:22:45;98767.16;;;7.23;92.26
69982;BME280;57319;56.274;43.980;2022-09-28T08:25:11;98765.44;;;7.24;92.51
69982;BME280;57319;56.274;43.980;2022-09-28T08:27:36;98765.47;;;7.21;92.09
69982;BME280;57319;56.274;43.980;2022-09-28T08:30:02;98769.78;;;7.19;92.04
69982;BME280;57319;56.274;43.980;2022-09-28T08:32:29;98773.28;;;7.13;92.15
69982;BME280;57319;56.274;43.980;2022-09-28T08:34:55;98755.34;;;7.15;92.32
69982;BME280;57319;56.274;43.980;2022-09-28T08:37:21;98780.97;;;7.13;92.19
69982;BME280;57319;56.274;43.980;2022-09-28T08:39:46;98758.78;;;7.13;92.23
69982;BME280;57319;56.274;43.980;2022-09-28T08:42:34;98754.53;;;7.11;92.04
69982;BME280;57319;56.274;43.980;2022-09-28T08:45:10;98743.47;;;7.10;92.35
69982;BME280;57319;56.274;43.980;2022-09-28T08:47:55;98751.13;;;7.12;91.96
69982;BME280;57319;56.274;43.980;2022-09-28T08:51:04;98751.94;;;7.12;91.86
69982;BME280;57319;56.274;43.980;2022-09-28T08:53:38;98744.22;;;7.16;91.94
69982;BME280;57319;56.274;43.980;2022-09-28T08:56:11;98744.31;;;7.11;92.05
69982;BME280;57319;56.274;43.980;2022-09-28T08:58:42;98748.56;;;7.12;91.99
69982;BME280;57319;56.274;43.980;2022-09-28T09:01:12;98746.81;;;7.14;92.04
69982;BME280;57319;56.274;43.980;2022-09-28T09:03:44;98738.31;;;7.12;92.22
69982;BME280;57319;56.274;43.980;2022-09-28T09:11:52;98736.69;;;7.08;92.04
69982;BME280;57319;56.274;43.980;2022-09-28T09:23:00;98729.13;;;6.99;92.09
69982;BME280;57319;56.274;43.980;2022-09-28T09:37:34;98713.03;;;6.90;92.70
69982;BME280;57319;56.274;43.980;2022-09-28T09:39:39;98719.88;;;6.90;92.60
69982;BME280;57319;56.274;43.980;2022-09-28T09:45:31;98718.16;;;6.90;92.49
69982;BME280;57319;56.274;43.980;2022-09-28T09:48:07;98718.13;;;6.92;92.34
69982;BME280;57319;56.274;43.980;2022-09-28T09:50:44;98716.53;;;6.85;92.70
69982;BME280;57319;56.274;43.980;2022-09-28T09:56:14;98716.53;;;6.85;92.58
69982;BME280;57319;56.274;43.980;2022-09-28T09:58:44;98723.38;;;6.84;92.53
69982;BME280;57319;56.274;43.980;2022-09-28T10:01:16;98728.50;;;6.84;92.51
69982;BME280;57319;56.274;43.980;2022-09-28T10:03:46;98715.72;;;6.81;92.63
69982;BME280;57319;56.274;43.980;2022-09-28T10:06:30;98713.97;;;6.85;92.36
69982;BME280;57319;56.274;43.980;2022-09-28T10:09:15;98727.69;;;6.81;92.49
69982;BME280;57319;56.274;43.980;2022-09-28T10:11:45;98725.97;;;6.81;92.95
69982;BME280;57319;56.274;43.980;2022-09-28T10:14:20;98715.81;;;6.76;92.64
69982;BME280;57319;56.274;43.980;2022-09-28T10:16:47;98723.47;;;6.76;92.61
69982;BME280;57319;56.274;43.980;2022-09-28T10:19:16;98720.91;;;6.76;92.57
69982;BME280;57319;56.274;43.980;2022-09-28T10:21:44;98718.44;;;6.72;92.80
69982;BME280;57319;56.274;43.980;2022-09-28T10:24:18;98721.78;;;6.75;92.87
69982;BME280;57319;56.274;43.980;2022-09-28T10:26:49;98706.50;;;6.71;92.49
69982;BME280;57319;56.274;43.980;2022-09-28T10:29:21;98715.88;;;6.72;92.35
69982;BME280;57319;56.274;43.980;2022-09-28T10:31:50;98709.06;;;6.71;92.54
69982;BME280;57319;56.274;43.980;2022-09-28T10:34:22;98709.06;;;6.71;92.85
69982;BME280;57319;56.274;43.980;2022-09-28T10:37:08;98710.75;;;6.72;92.59
69982;BME280;57319;56.274;43.980;2022-09-28T10:42:29;98704.78;;;6.71;92.77
69982;BME280;57319;56.274;43.980;2022-09-28T10:45:01;98700.47;;;6.75;92.72
69982;BME280;57319;56.274;43.980;2022-09-28T10:47:30;98698.78;;;6.74;92.55
69982;BME280;57319;56.274;43.980;2022-09-28T10:49:58;98706.50;;;6.71;92.72
69982;BME280;57319;56.274;43.980;2022-09-28T10:52:37;98700.56;;;6.69;92.66
69982;BME280;57319;56.274;43.980;2022-09-28T10:55:36;98700.56;;;6.69;92.94
69982;BME280;57319;56.274;43.980;2022-09-28T10:58:25;98690.31;;;6.69;93.19
69982;BME280;57319;56.274;43.980;2022-09-28T11:00:51;98697.16;;;6.68;93.21
69982;BME280;57319;56.274;43.980;2022-09-28T11:03:24;98684.44;;;6.65;93.22
69982;BME280;57319;56.274;43.980;2022-09-28T11:05:54;98697.13;;;6.70;93.33
69982;BME280;57319;56.274;43.980;2022-09-28T11:08:25;98696.31;;;6.69;93.36
69982;BME280;57319;56.274;43.980;2022-09-28T11:11:12;98702.31;;;6.67;93.51
69982;BME280;57319;56.274;43.980;2022-09-28T11:13:44;98695.44;;;6.69;93.37
69982;BME280;57319;56.274;43.980;2022-09-28T11:18:48;98694.50;;;6.74;93.42
69982;BME280;57319;56.274;43.980;2022-09-28T11:21:16;98686.03;;;6.72;93.44
69982;BME280;57319;56.274;43.980;2022-09-28T11:24:01;98691.03;;;6.78;93.28
69982;BME280;57319;56.274;43.980;2022-09-28T11:26:37;98693.53;;;6.83;93.39
69982;BME280;57319;56.274;43.980;2022-09-28T11:29:04;98692.69;;;6.84;93.15
69982;BME280;57319;56.274;43.980;2022-09-28T11:31:32;98689.22;;;6.87;93.28
69982;BME280;57319;56.274;43.980;2022-09-28T11:34:15;98688.41;;;6.85;93.13
69982;BME280;57319;56.274;43.980;2022-09-28T11:39:27;98685.06;;;6.79;93.10
69982;BME280;57319;56.274;43.980;2022-09-28T11:42:07;98685.09;;;6.78;93.29
69982;BME280;57319;56.274;43.980;2022-09-28T11:44:41;98669.75;;;6.78;93.21
69982;BME280;57319;56.274;43.980;2022-09-28T11:47:13;98671.44;;;6.79;93.43
69982;BME280;57319;56.274;43.980;2022-09-28T11:49:49;98670.56;;;6.80;93.19
69982;BME280;57319;56.274;43.980;2022-09-28T11:54:58;98672.22;;;6.83;93.03
69982;BME280;57319;56.274;43.980;2022-09-28T11:57:31;98668.03;;;6.80;93.16
69982;BME280;57319;56.274;43.980;2022-09-28T12:00:03;98675.59;;;6.86;92.82
69982;BME280;57319;56.274;43.980;2022-09-28T12:02:36;98669.66;;;6.84;92.68
69982;BME280;57319;56.274;43.980;2022-09-28T12:05:21;98675.63;;;6.83;92.95
69982;BME280;57319;56.274;43.980;2022-09-28T12:08:06;98667.91;;;6.86;92.82
69982;BME280;57319;56.274;43.980;2022-09-28T12:10:37;98667.91;;;6.86;92.47
69982;BME280;57319;56.274;43.980;2022-09-28T12:13:26;98667.09;;;6.83;92.49
69982;BME280;57319;56.274;43.980;2022-09-28T12:16:12;98662.91;;;6.80;92.74
69982;BME280;57319;56.274;43.980;2022-09-28T12:19:28;98659.50;;;6.78;92.80
69982;BME280;57319;56.274;43.980;2022-09-28T12:34:30;98659.78;;;6.58;92.83
69982;BME280;57319;56.274;43.980;2022-09-28T12:48:07;98648.00;;;6.49;92.67
69982;BME280;57319;56.274;43.980;2022-09-28T12:56:16;98642.94;;;6.46;93.14
69982;BME280;57319;56.274;43.980;2022-09-28T13:07:03;98638.75;;;6.37;93.34
69982;BME280;57319;56.274;43.980;2022-09-28T13:09:40;98635.44;;;6.34;92.86
69982;BME280;57319;56.274;43.980;2022-09-28T13:26:06;98639.91;;;6.15;93.10
69982;BME280;57319;56.274;43.980;2022-09-28T13:28:36;98632.31;;;6.11;92.94
69982;BME280;57319;56.274;43.980;2022-09-28T13:31:04;98642.50;;;6.13;93.39
69982;BME280;57319;56.274;43.980;2022-09-28T13:33:31;98645.09;;;6.10;92.82
69982;BME280;57319;56.274;43.980;2022-09-28T13:36:33;98640.88;;;6.07;93.13
69982;BME280;57319;56.274;43.980;2022-09-28T13:38:54;98650.22;;;6.07;92.87
69982;BME280;57319;56.274;43.980;2022-09-28T13:41:21;98640.06;;;6.04;92.90
69982;BME280;57319;56.274;43.980;2022-09-28T13:49:51;98646.09;;;5.98;92.90
69982;BME280;57319;56.274;43.980;2022-09-28T13:55:22;98652.06;;;5.92;92.61
69982;BME280;57319;56.274;43.980;2022-09-28T14:00:32;98652.91;;;5.94;92.45
69982;BME280;57319;56.274;43.980;2022-09-28T14:03:41;98651.22;;;5.90;92.53
69982;BME280;57319;56.274;43.980;2022-09-28T14:06:30;98657.22;;;5.88;92.52
69982;BME280;57319;56.274;43.980;2022-09-28T14:14:25;98648.78;;;5.80;92.57
69982;BME280;57319;56.274;43.980;2022-09-28T14:19:50;98658.22;;;5.76;92.66
69982;BME280;57319;56.274;43.980;2022-09-28T14:32:38;98659.19;;;5.64;92.45
69982;BME280;57319;56.274;43.980;2022-09-28T14:35:06;98659.25;;;5.59;92.08
69982;BME280;57319;56.274;43.980;2022-09-28T14:37:40;98655.81;;;5.59;92.51
69982;BME280;57319;56.274;43.980;2022-09-28T14:41:03;98657.59;;;5.54;92.08
69982;BME280;57319;56.274;43.980;2022-09-28T14:54:24;98667.00;;;5.47;92.37
69982;BME280;57319;56.274;43.980;2022-09-28T14:59:25;98651.72;;;5.42;92.56
69982;BME280;57319;56.274;43.980;2022-09-28T15:01:55;98662.84;;;5.37;92.26
69982;BME280;57319;56.274;43.980;2022-09-28T15:04:27;98669.69;;;5.35;92.34
69982;BME280;57319;56.274;43.980;2022-09-28T15:06:53;98659.47;;;5.35;92.42
69982;BME280;57319;56.274;43.980;2022-09-28T15:09:30;98673.09;;;5.32;92.21
69982;BME280;57319;56.274;43.980;2022-09-28T15:14:31;98680.78;;;5.26;92.13
69982;BME280;57319;56.274;43.980;2022-09-28T15:16:59;98678.25;;;5.24;92.36
69982;BME280;57319;56.274;43.980;2022-09-28T15:19:40;98661.28;;;5.23;92.25
69982;BME280;57319;56.274;43.980;2022-09-28T15:22:16;98666.38;;;5.20;92.45
69982;BME280;57319;56.274;43.980;2022-09-28T15:24:53;98663.88;;;5.17;92.29
69982;BME280;57319;56.274;43.980;2022-09-28T15:27:20;98659.63;;;5.15;92.59
69982;BME280;57319;56.274;43.980;2022-09-28T15:29:58;98671.59;;;5.11;92.73
69982;BME280;57319;56.274;43.980;2022-09-28T15:32:25;98656.25;;;5.14;92.37
69982;BME280;57319;56.274;43.980;2022-09-28T15:34:51;98652.00;;;5.12;92.42
69982;BME280;57319;56.274;43.980;2022-09-28T15:37:28;98649.47;;;5.10;92.75
69982;BME280;57319;56.274;43.980;2022-09-28T15:39:58;98655.44;;;5.09;93.01
69982;BME280;57319;56.274;43.980;2022-09-28T15:42:24;98652.00;;;5.13;92.85
69982;BME280;57319;56.274;43.980;2022-09-28T15:45:20;98655.41;;;5.10;92.34
69982;BME280;57319;56.274;43.980;2022-09-28T15:48:00;98652.88;;;5.09;92.69
69982;BME280;57319;56.274;43.980;2022-09-28T15:50:55;98655.47;;;5.04;92.48
69982;BME280;57319;56.274;43.980;2022-09-28T15:53:22;98652.13;;;4.99;92.69
69982;BME280;57319;56.274;43.980;2022-09-28T15:55:49;98648.69;;;5.03;92.80
69982;BME280;57319;56.274;43.980;2022-09-28T15:58:20;98657.16;;;5.07;92.71
69982;BME280;57319;56.274;43.980;2022-09-28T16:00:47;98654.63;;;5.04;92.78
69982;BME280;57319;56.274;43.980;2022-09-28T16:05:51;98654.69;;;4.98;92.91
69982;BME280;57319;56.274;43.980;2022-09-28T16:13:55;98657.28;;;4.90;93.16
69982;BME280;57319;56.274;43.980;2022-09-28T16:16:33;98651.34;;;4.89;93.04
69982;BME280;57319;56.274;43.980;2022-09-28T16:19:00;98644.50;;;4.91;92.99
69982;BME280;57319;56.274;43.980;2022-09-28T16:24:01;98651.28;;;4.94;93.11
69982;BME280;57319;56.274;43.980;2022-09-28T16:26:35;98649.63;;;4.90;92.73